createdAt,value
2019-01-28T00:01:18.817Z,4.47
2019-01-28T00:03:47.407Z,4.60
2019-01-28T00:06:16.892Z,3.60
2019-01-28T00:08:45.442Z,3.93
2019-01-28T00:11:14.356Z,3.57
2019-01-28T00:13:42.973Z,4.63
2019-01-28T00:16:11.604Z,4.67
2019-01-28T00:18:40.534Z,7.00
2019-01-28T00:21:09.517Z,4.37
2019-01-28T00:23:38.107Z,4.70
2019-01-28T00:26:06.718Z,4.00
2019-01-28T00:28:36.478Z,4.57
2019-01-28T00:31:05.343Z,4.93
2019-01-28T00:33:33.878Z,4.10
2019-01-28T00:36:02.393Z,4.13
2019-01-28T00:38:30.963Z,3.40
2019-01-28T00:41:00.279Z,4.80
2019-01-28T00:43:28.930Z,5.27
2019-01-28T00:45:57.476Z,5.43
2019-01-28T00:48:26.103Z,4.20
2019-01-28T00:50:54.984Z,5.53
2019-01-28T00:53:23.565Z,4.10
2019-01-28T00:55:52.109Z,8.47
2019-01-28T00:58:21.077Z,5.33
2019-01-28T01:00:50.630Z,4.40
2019-01-28T01:03:19.280Z,3.90
2019-01-28T01:05:47.930Z,5.97
2019-01-28T01:08:16.524Z,4.93
2019-01-28T01:10:45.042Z,5.30
2019-01-28T01:13:13.642Z,4.73
2019-01-28T01:15:42.194Z,7.40
2019-01-28T01:18:10.802Z,4.67
2019-01-28T01:20:39.427Z,7.30
2019-01-28T01:23:08.021Z,6.37
2019-01-28T01:25:36.552Z,4.60
2019-01-28T01:28:05.190Z,5.47
2019-01-28T01:30:33.717Z,13.43
2019-01-28T01:33:02.307Z,7.80
2019-01-28T01:35:30.833Z,5.63
2019-01-28T01:37:59.805Z,6.97
2019-01-28T01:40:28.352Z,7.77
2019-01-28T01:42:57.268Z,5.87
2019-01-28T01:45:25.786Z,9.63
2019-01-28T01:47:54.343Z,6.30
2019-01-28T01:50:22.863Z,7.00
2019-01-28T01:52:51.486Z,6.80
2019-01-28T01:55:20.005Z,7.50
2019-01-28T01:57:48.564Z,6.73
2019-01-28T02:00:18.913Z,9.17
2019-01-28T02:02:47.543Z,11.87
2019-01-28T02:05:16.164Z,8.10
2019-01-28T02:07:44.774Z,7.30
2019-01-28T02:10:15.014Z,9.53
2019-01-28T02:12:43.666Z,9.63
2019-01-28T02:15:15.512Z,7.57
2019-01-28T02:17:44.198Z,12.43
2019-01-28T02:20:12.771Z,7.07
2019-01-28T02:22:41.403Z,6.80
2019-01-28T02:25:12.041Z,9.60
2019-01-28T02:27:40.694Z,8.13
2019-01-28T02:30:12.691Z,9.67
2019-01-28T02:32:41.276Z,9.03
2019-01-28T02:35:10.358Z,12.20
2019-01-28T02:37:39.315Z,8.70
2019-01-28T02:40:10.964Z,10.50
2019-01-28T02:42:39.532Z,12.43
2019-01-28T02:45:09.975Z,8.77
2019-01-28T02:47:38.535Z,10.77
2019-01-28T02:50:15.473Z,7.53
2019-01-28T02:52:44.100Z,7.70
2019-01-28T02:55:13.132Z,8.83
2019-01-28T02:57:41.743Z,10.10
2019-01-28T03:00:18.982Z,11.57
2019-01-28T03:02:47.933Z,8.80
2019-01-28T03:05:17.610Z,13.27
2019-01-28T03:07:46.213Z,11.83
2019-01-28T03:10:19.989Z,8.07
2019-01-28T03:12:48.584Z,6.80
2019-01-28T03:15:18.002Z,5.63
2019-01-28T03:17:46.648Z,8.60
2019-01-28T03:20:17.387Z,11.30
2019-01-28T03:22:47.028Z,8.63
2019-01-28T03:25:18.145Z,11.90
2019-01-28T03:27:47.044Z,10.50
2019-01-28T03:30:20.939Z,10.73
2019-01-28T03:32:50.184Z,6.80
2019-01-28T03:35:18.831Z,9.90
2019-01-28T03:37:47.430Z,10.70
2019-01-28T03:40:18.165Z,11.27
2019-01-28T03:42:46.811Z,10.60
2019-01-28T03:45:20.821Z,8.77
2019-01-28T03:47:49.929Z,22.03
2019-01-28T03:50:19.181Z,6.70
2019-01-28T03:52:48.219Z,7.47
2019-01-28T03:55:17.112Z,9.93
2019-01-28T03:57:46.204Z,4.73
2019-01-28T04:00:18.191Z,12.33
2019-01-28T04:02:46.702Z,8.87
2019-01-28T04:05:15.301Z,6.80
2019-01-28T04:07:43.999Z,4.87
2019-01-28T04:10:15.515Z,4.33
2019-01-28T04:12:44.029Z,4.57
2019-01-28T04:15:15.720Z,7.37
2019-01-28T04:17:44.334Z,3.30
2019-01-28T04:20:14.940Z,4.93
2019-01-28T04:22:43.815Z,7.70
2019-01-28T04:25:13.626Z,6.70
2019-01-28T04:27:42.523Z,7.20
2019-01-28T04:30:16.816Z,7.60
2019-01-28T04:32:45.399Z,3.53
2019-01-28T04:35:14.411Z,7.37
2019-01-28T04:37:43.059Z,5.13
2019-01-28T04:40:13.628Z,4.47
2019-01-28T04:42:42.421Z,4.13
2019-01-28T04:45:16.207Z,8.97
2019-01-28T04:47:44.723Z,8.20
2019-01-28T04:50:15.521Z,9.20
2019-01-28T04:52:44.084Z,9.13
2019-01-28T04:55:14.139Z,6.17
2019-01-28T04:57:42.814Z,8.77
2019-01-28T05:00:16.758Z,10.43
2019-01-28T05:02:45.391Z,8.00
2019-01-28T05:05:14.238Z,8.07
2019-01-28T05:07:42.922Z,6.00
2019-01-28T05:10:14.078Z,7.27
2019-01-28T05:12:43.037Z,6.70
2019-01-28T05:15:14.106Z,9.83
2019-01-28T05:17:43.635Z,7.30
2019-01-28T05:20:14.936Z,10.90
2019-01-28T05:22:43.933Z,9.50
2019-01-28T05:25:14.689Z,9.13
2019-01-28T05:27:43.325Z,7.27
2019-01-28T05:30:15.440Z,5.17
2019-01-28T05:32:44.429Z,9.97
2019-01-28T05:35:16.077Z,7.07
2019-01-28T05:37:44.608Z,11.30
2019-01-28T05:40:16.070Z,5.37
2019-01-28T05:42:47.478Z,6.97
2019-01-28T05:45:18.141Z,9.50
2019-01-28T05:47:46.727Z,7.43
2019-01-28T05:50:17.126Z,8.10
2019-01-28T05:52:45.738Z,9.50
2019-01-28T05:55:16.908Z,10.40
2019-01-28T05:57:45.901Z,9.83
2019-01-28T06:00:24.896Z,12.00
2019-01-28T06:02:53.514Z,10.17
2019-01-28T06:05:22.087Z,13.77
2019-01-28T06:07:51.040Z,10.20
2019-01-28T06:10:19.744Z,6.73
2019-01-28T06:12:48.378Z,13.40
2019-01-28T06:15:18.939Z,9.93
2019-01-28T06:17:48.072Z,11.60
2019-01-28T06:20:21.999Z,8.63
2019-01-28T06:22:51.085Z,13.07
2019-01-28T06:25:19.806Z,7.97
2019-01-28T06:27:48.461Z,13.23
2019-01-28T06:30:19.969Z,10.80
2019-01-28T06:32:49.781Z,7.03
2019-01-28T06:35:18.721Z,6.30
2019-01-28T06:37:47.708Z,8.50
2019-01-28T06:40:26.154Z,15.00
2019-01-28T06:42:54.830Z,10.70
2019-01-28T06:45:23.374Z,8.90
2019-01-28T06:47:52.127Z,11.10
2019-01-28T06:50:22.198Z,12.73
2019-01-28T06:52:50.958Z,17.70
2019-01-28T06:55:20.451Z,11.77
2019-01-28T06:57:49.091Z,12.80
2019-01-28T07:00:30.052Z,11.90
2019-01-28T07:02:59.291Z,13.87
2019-01-28T07:05:27.945Z,9.93
2019-01-28T07:07:58.103Z,13.07
2019-01-28T07:10:26.708Z,13.67
2019-01-28T07:12:55.994Z,11.93
2019-01-28T07:15:24.772Z,13.77
2019-01-28T07:17:55.138Z,14.00
2019-01-28T07:20:27.115Z,18.90
2019-01-28T07:22:56.124Z,14.80
2019-01-28T07:25:24.709Z,13.13
2019-01-28T07:27:53.579Z,14.23
2019-01-28T07:30:35.776Z,14.17
2019-01-28T07:33:04.988Z,12.17
2019-01-28T07:35:34.170Z,15.97
2019-01-28T07:38:02.915Z,13.57
2019-01-28T07:40:31.620Z,13.60
2019-01-28T07:43:01.353Z,13.50
2019-01-28T07:45:35.040Z,11.10
2019-01-28T07:48:04.406Z,11.60
2019-01-28T07:50:32.923Z,17.47
2019-01-28T07:53:01.542Z,15.30
2019-01-28T07:55:30.057Z,17.63
2019-01-28T07:57:59.051Z,18.07
2019-01-28T08:00:29.462Z,14.23
2019-01-28T08:02:58.158Z,11.90
2019-01-28T08:05:27.415Z,14.40
2019-01-28T08:07:56.052Z,13.93
2019-01-28T08:10:24.993Z,15.33
2019-01-28T08:12:53.787Z,15.60
2019-01-28T08:15:24.840Z,14.40
2019-01-28T08:17:53.607Z,14.77
2019-01-28T08:20:22.483Z,18.43
2019-01-28T08:22:51.289Z,17.27
2019-01-28T08:25:21.282Z,25.63
2019-01-28T08:27:50.405Z,20.03
2019-01-28T08:30:33.849Z,16.40
2019-01-28T08:33:03.068Z,17.47
2019-01-28T08:35:33.276Z,19.20
2019-01-28T08:38:01.889Z,14.33
2019-01-28T08:40:30.512Z,15.00
2019-01-28T08:42:59.501Z,14.97
2019-01-28T08:45:28.118Z,18.07
2019-01-28T08:47:57.077Z,16.53
2019-01-28T08:50:27.256Z,19.90
2019-01-28T08:52:55.924Z,16.17
2019-01-28T08:55:29.262Z,14.80
2019-01-28T08:57:57.979Z,15.23
2019-01-28T09:00:30.823Z,13.87
2019-01-28T09:03:00.220Z,12.90
2019-01-28T09:05:28.945Z,12.17
2019-01-28T09:07:57.984Z,13.30
2019-01-28T09:10:28.986Z,10.73
2019-01-28T09:12:57.663Z,11.60
2019-01-28T09:15:26.893Z,12.03
2019-01-28T09:17:56.565Z,20.10
2019-01-28T09:20:27.638Z,16.73
2019-01-28T09:22:56.289Z,12.60
2019-01-28T09:25:24.896Z,10.80
2019-01-28T09:27:53.593Z,17.10
2019-01-28T09:30:28.147Z,15.57
2019-01-28T09:32:57.622Z,14.07
2019-01-28T09:35:26.199Z,10.43
2019-01-28T09:37:54.980Z,12.03
2019-01-28T09:40:29.141Z,10.43
2019-01-28T09:42:58.383Z,11.67
2019-01-28T09:45:38.338Z,9.90
2019-01-28T09:48:08.203Z,12.03
2019-01-28T09:50:37.204Z,10.50
2019-01-28T09:53:06.878Z,9.90
2019-01-28T09:55:35.842Z,10.00
2019-01-28T09:58:05.441Z,11.47
2019-01-28T10:00:36.793Z,9.47
2019-01-28T10:03:06.170Z,7.53
2019-01-28T10:05:34.877Z,9.33
2019-01-28T10:08:03.926Z,8.43
2019-01-28T10:10:32.636Z,8.73
2019-01-28T10:13:01.515Z,7.83
2019-01-28T10:15:30.702Z,8.33
2019-01-28T10:17:59.521Z,7.07
2019-01-28T10:20:37.250Z,8.97
2019-01-28T10:23:06.067Z,6.33
2019-01-28T10:25:34.792Z,5.60
2019-01-28T10:28:03.469Z,7.17
2019-01-28T10:30:37.364Z,6.97
2019-01-28T10:33:07.040Z,7.10
2019-01-28T10:35:40.228Z,6.40
2019-01-28T10:38:09.530Z,7.23
2019-01-28T10:40:42.504Z,5.03
2019-01-28T10:43:12.738Z,5.40
2019-01-28T10:45:41.461Z,5.80
2019-01-28T10:48:10.733Z,4.63
2019-01-28T10:50:40.063Z,9.30
2019-01-28T10:53:08.845Z,4.70
2019-01-28T10:55:37.672Z,5.90
2019-01-28T10:58:06.799Z,5.07
2019-01-28T11:00:44.217Z,5.87
2019-01-28T11:03:14.825Z,4.80
2019-01-28T11:05:43.757Z,5.57
2019-01-28T11:08:12.502Z,3.70
2019-01-28T11:10:41.238Z,6.10
2019-01-28T11:13:10.194Z,9.27
2019-01-28T11:15:38.829Z,5.93
2019-01-28T11:18:10.580Z,5.57
2019-01-28T11:20:39.188Z,3.10
2019-01-28T11:23:07.811Z,3.43
2019-01-28T11:25:36.540Z,4.27
2019-01-28T11:28:05.309Z,8.13
2019-01-28T11:30:44.263Z,6.10
2019-01-28T11:33:13.044Z,3.00
2019-01-28T11:35:43.170Z,4.00
2019-01-28T11:38:12.840Z,5.17
2019-01-28T11:40:41.663Z,6.50
2019-01-28T11:43:10.482Z,2.63
2019-01-28T11:46:00.440Z,5.57
2019-01-28T11:48:30.083Z,3.70
2019-01-28T11:50:58.871Z,2.93
2019-01-28T11:53:27.467Z,4.23
2019-01-28T11:55:56.108Z,5.80
2019-01-28T11:58:24.783Z,7.20
2019-01-28T12:01:01.224Z,2.80
2019-01-28T12:03:30.373Z,5.57
2019-01-28T12:05:59.019Z,4.53
2019-01-28T12:08:27.861Z,2.10
2019-01-28T12:10:56.715Z,2.27
2019-01-28T12:13:25.422Z,6.17
2019-01-28T12:15:54.074Z,2.27
2019-01-28T12:18:23.012Z,2.40
2019-01-28T12:20:53.740Z,1.80
2019-01-28T12:23:22.958Z,3.20
2019-01-28T12:25:52.333Z,5.73
2019-01-28T12:28:21.018Z,3.67
2019-01-28T12:30:49.653Z,1.83
2019-01-28T12:33:18.823Z,3.43
2019-01-28T12:35:48.929Z,4.37
2019-01-28T12:38:17.692Z,1.70
2019-01-28T12:40:46.384Z,2.80
2019-01-28T12:43:14.912Z,2.30
2019-01-28T12:45:43.545Z,1.67
2019-01-28T12:48:12.774Z,2.87
2019-01-28T12:50:41.609Z,4.07
2019-01-28T12:53:10.503Z,2.30
2019-01-28T12:55:40.413Z,2.80
2019-01-28T12:58:09.860Z,3.33
2019-01-28T13:00:40.917Z,1.83
2019-01-28T13:03:11.150Z,10.10
2019-01-28T13:05:40.591Z,2.90
2019-01-28T13:08:09.584Z,2.40
2019-01-28T13:10:38.653Z,5.97
2019-01-28T13:13:07.521Z,3.77
2019-01-28T13:15:36.868Z,2.17
2019-01-28T13:18:05.697Z,1.67
2019-01-28T13:20:34.631Z,2.03
2019-01-28T13:25:51.225Z,2.50
2019-01-28T13:28:20.416Z,2.17
2019-01-28T13:30:49.089Z,2.50
2019-01-28T13:33:18.529Z,3.00
2019-01-28T13:35:47.241Z,1.90
2019-01-28T13:38:16.186Z,2.30
2019-01-28T13:40:46.128Z,1.83
2019-01-28T13:43:16.659Z,3.53
2019-01-28T13:45:45.516Z,4.70
2019-01-28T13:48:15.886Z,2.00
2019-01-28T13:50:44.580Z,1.93
2019-01-28T13:53:13.656Z,1.50
2019-01-28T13:55:42.197Z,3.00
2019-01-28T13:58:10.974Z,3.27
2019-01-28T14:00:40.793Z,1.90
2019-01-28T14:03:09.585Z,2.20
2019-01-28T14:05:39.162Z,1.57
2019-01-28T14:08:08.163Z,2.87
2019-01-28T14:10:36.888Z,2.93
2019-01-28T14:13:06.649Z,4.47
2019-01-28T14:15:37.994Z,2.73
2019-01-28T14:18:08.394Z,6.13
2019-01-28T14:20:38.922Z,1.93
2019-01-28T14:23:07.855Z,1.83
2019-01-28T14:25:36.518Z,3.63
2019-01-28T14:28:06.129Z,3.17
2019-01-28T14:30:42.494Z,2.70
2019-01-28T14:33:11.416Z,2.17
2019-01-28T14:35:40.442Z,5.07
2019-01-28T14:38:10.965Z,3.43
2019-01-28T14:40:40.593Z,2.13
2019-01-28T14:43:09.207Z,3.23
2019-01-28T14:45:37.913Z,2.90
2019-01-28T14:48:07.853Z,2.73
2019-01-28T14:50:38.037Z,1.53
2019-01-28T14:53:06.862Z,2.57
2019-01-28T14:55:37.306Z,2.97
2019-01-28T14:58:07.674Z,3.20
2019-01-28T15:00:38.966Z,1.50
2019-01-28T15:03:08.367Z,1.40
2019-01-28T15:05:37.629Z,2.00
2019-01-28T15:08:07.592Z,3.67
2019-01-28T15:10:36.998Z,3.60
2019-01-28T15:13:06.568Z,1.50
2019-01-28T15:15:37.634Z,3.63
2019-01-28T15:18:09.146Z,2.80
2019-01-28T15:20:38.553Z,1.50
2019-01-28T15:23:08.640Z,1.83
2019-01-28T15:25:38.674Z,1.70
2019-01-28T15:28:07.800Z,2.43
2019-01-28T15:30:37.841Z,1.80
2019-01-28T15:33:08.101Z,2.20
2019-01-28T15:35:38.842Z,2.90
2019-01-28T15:38:07.831Z,1.53
2019-01-28T15:40:37.829Z,4.93
2019-01-28T15:43:07.134Z,2.10
2019-01-28T15:45:39.523Z,2.67
2019-01-28T15:48:10.435Z,1.73
2019-01-28T15:50:40.596Z,1.80
2019-01-28T15:53:10.151Z,2.67
2019-01-28T15:55:40.916Z,2.00
2019-01-28T15:58:10.818Z,2.60
2019-01-28T16:00:42.281Z,4.57
2019-01-28T16:03:12.217Z,4.27
2019-01-28T16:05:42.032Z,5.63
2019-01-28T16:08:11.701Z,5.00
2019-01-28T16:10:41.438Z,7.60
2019-01-28T16:13:10.641Z,2.07
2019-01-28T16:15:43.195Z,1.57
2019-01-28T16:18:13.776Z,3.37
2019-01-28T16:20:42.898Z,3.30
2019-01-28T16:23:12.568Z,2.20
2019-01-28T16:25:43.236Z,1.70
2019-01-28T16:28:12.883Z,2.37
2019-01-28T16:30:43.124Z,2.30
2019-01-28T16:33:12.481Z,2.00
2019-01-28T16:35:42.561Z,5.73
2019-01-28T16:38:11.730Z,2.37
2019-01-28T16:40:40.503Z,1.97
2019-01-28T16:43:09.636Z,3.83
2019-01-28T16:45:39.228Z,2.20
2019-01-28T16:48:08.078Z,2.63
2019-01-28T16:50:36.907Z,3.23
2019-01-28T16:53:06.247Z,2.53
2019-01-28T16:55:35.337Z,3.70
2019-01-28T16:58:05.868Z,3.83
2019-01-28T17:00:37.556Z,2.80
2019-01-28T17:03:08.369Z,5.43
2019-01-28T17:05:37.906Z,3.33
2019-01-28T17:08:07.907Z,4.23
2019-01-28T17:10:36.938Z,4.90
2019-01-28T17:13:06.655Z,3.93
2019-01-28T17:15:35.552Z,2.83
2019-01-28T17:18:05.402Z,4.50
2019-01-28T17:20:35.781Z,20.13
2019-01-28T17:23:04.857Z,10.23
2019-01-28T17:25:36.764Z,42.60
2019-01-28T17:28:05.910Z,11.37
2019-01-28T17:30:46.660Z,5.63
2019-01-28T17:33:17.221Z,4.13
2019-01-28T17:35:47.715Z,5.87
2019-01-28T17:38:16.436Z,4.27
2019-01-28T17:40:45.305Z,3.80
2019-01-28T17:43:14.378Z,3.87
2019-01-28T17:45:43.000Z,3.47
2019-01-28T17:48:11.787Z,5.90
2019-01-28T17:50:43.619Z,2.63
2019-01-28T17:53:10.996Z,3.40
2019-01-28T17:55:40.054Z,3.00
2019-01-28T17:58:09.540Z,3.40
2019-01-28T18:00:48.897Z,3.60
2019-01-28T18:03:18.154Z,4.93
2019-01-28T18:05:46.926Z,4.83
2019-01-28T18:08:15.762Z,3.90
2019-01-28T18:10:46.745Z,4.50
2019-01-28T18:13:16.270Z,4.40
2019-01-28T18:15:45.026Z,4.73
2019-01-28T18:18:14.528Z,3.60
2019-01-28T18:20:51.264Z,4.40
2019-01-28T18:23:16.418Z,5.30
2019-01-28T18:25:46.396Z,4.83
2019-01-28T18:28:16.361Z,4.83
2019-01-28T18:30:46.811Z,6.30
2019-01-28T18:33:16.207Z,5.23
2019-01-28T18:35:45.917Z,8.27
2019-01-28T18:38:15.533Z,5.80
2019-01-28T18:40:45.470Z,5.43
2019-01-28T18:43:14.672Z,5.93
2019-01-28T18:45:43.777Z,6.63
2019-01-28T18:48:12.833Z,6.80
2019-01-28T18:50:41.666Z,5.97
2019-01-28T18:53:13.891Z,6.60
2019-01-28T18:55:43.220Z,7.10
2019-01-28T18:58:12.233Z,7.50
2019-01-28T19:00:41.933Z,6.97
2019-01-28T19:03:10.826Z,11.43
2019-01-28T19:05:43.018Z,10.37
2019-01-28T19:08:20.105Z,82.77
2019-01-28T19:10:51.435Z,48.40
2019-01-28T19:13:28.158Z,58.77
2019-01-28T19:16:05.150Z,13.93
2019-01-28T19:18:38.962Z,9.33
2019-01-28T19:21:09.998Z,11.87
2019-01-28T19:23:39.660Z,9.90
2019-01-28T19:26:09.908Z,8.00
2019-01-28T19:28:40.609Z,12.40
2019-01-28T19:31:09.520Z,8.63
2019-01-28T19:33:38.383Z,8.90
2019-01-28T19:36:07.305Z,15.60
2019-01-28T19:38:38.606Z,20.60
2019-01-28T19:41:08.063Z,28.93
2019-01-28T19:43:37.240Z,21.07
2019-01-28T19:46:06.215Z,19.57
2019-01-28T19:48:34.940Z,17.13
2019-01-28T19:51:05.190Z,18.13
2019-01-28T19:53:34.097Z,12.53
2019-01-28T19:56:02.986Z,13.63
2019-01-28T19:58:32.298Z,12.50
2019-01-28T20:01:04.160Z,10.93
2019-01-28T20:03:33.357Z,13.70
2019-01-28T20:06:02.159Z,11.90
2019-01-28T20:08:32.669Z,10.57
2019-01-28T20:11:01.675Z,12.43
2019-01-28T20:13:34.046Z,11.77
2019-01-28T20:16:02.897Z,13.57
2019-01-28T20:18:31.620Z,17.23
2019-01-28T20:21:02.706Z,13.87
2019-01-28T20:23:31.984Z,15.00
2019-01-28T20:26:01.148Z,12.90
2019-01-28T20:28:31.307Z,15.97
2019-01-28T20:31:02.496Z,18.90
2019-01-28T20:33:31.844Z,17.20
2019-01-28T20:36:00.605Z,14.83
2019-01-28T20:38:30.357Z,19.83
2019-01-28T20:40:59.795Z,13.80
2019-01-28T20:43:29.608Z,15.83
2019-01-28T20:45:58.612Z,17.17
2019-01-28T20:48:27.704Z,20.30
2019-01-28T20:50:57.106Z,16.83
2019-01-28T20:53:25.910Z,17.33
2019-01-28T20:55:54.898Z,16.57
2019-01-28T20:58:24.767Z,15.60
2019-01-28T21:00:53.591Z,17.90
2019-01-28T21:03:22.317Z,17.63
2019-01-28T21:05:51.516Z,15.77
2019-01-28T21:08:20.477Z,14.33
2019-01-28T21:10:49.260Z,15.70
2019-01-28T21:13:18.368Z,15.63
2019-01-28T21:15:47.146Z,13.60
2019-01-28T21:18:16.137Z,15.07
2019-01-28T21:20:45.020Z,14.30
2019-01-28T21:23:14.836Z,14.80
2019-01-28T21:25:43.523Z,13.70
2019-01-28T21:28:12.618Z,15.83
2019-01-28T21:30:41.434Z,15.10
2019-01-28T21:33:10.579Z,12.43
2019-01-28T21:35:57.684Z,14.77
2019-01-28T21:38:30.153Z,13.50
2019-01-28T21:41:01.017Z,13.33
2019-01-28T21:43:30.651Z,16.40
2019-01-28T21:45:59.630Z,16.37
2019-01-28T21:48:28.525Z,15.20
2019-01-28T21:50:57.644Z,16.63
2019-01-28T21:53:27.626Z,16.60
2019-01-28T21:55:58.074Z,15.03
2019-01-28T21:58:27.453Z,13.77
2019-01-28T22:00:56.192Z,15.13
2019-01-28T22:03:25.086Z,17.67
2019-01-28T22:05:54.684Z,14.10
2019-01-28T22:08:24.165Z,14.77
2019-01-28T22:10:53.455Z,17.07
2019-01-28T22:13:22.423Z,16.00
2019-01-28T22:15:52.476Z,13.10
2019-01-28T22:18:23.768Z,17.17
2019-01-28T22:20:53.381Z,15.77
2019-01-28T22:23:22.688Z,19.40
2019-01-28T22:25:51.965Z,16.07
2019-01-28T22:28:22.167Z,17.10
2019-01-28T22:30:51.449Z,14.80
2019-01-28T22:33:21.288Z,15.90
2019-01-28T22:35:50.054Z,19.73
2019-01-28T22:38:19.032Z,14.93
2019-01-28T22:40:49.442Z,15.97
2019-01-28T22:43:18.244Z,14.27
2019-01-28T22:45:47.556Z,15.97
2019-01-28T22:48:16.431Z,16.60
2019-01-28T22:50:45.149Z,18.80
2019-01-28T22:53:14.012Z,14.53
2019-01-28T22:55:42.694Z,20.17
2019-01-28T22:58:11.584Z,16.07
2019-01-28T23:00:50.977Z,20.63
2019-01-28T23:03:22.580Z,15.17
2019-01-28T23:05:51.264Z,14.97
2019-01-28T23:08:19.928Z,14.60
2019-01-28T23:10:48.740Z,17.53
2019-01-28T23:13:17.631Z,19.87
2019-01-28T23:15:46.421Z,18.30
2019-01-28T23:18:15.112Z,18.50
2019-01-28T23:20:43.787Z,17.00
2019-01-28T23:23:12.438Z,17.80
2019-01-28T23:25:41.254Z,16.80
2019-01-28T23:28:09.888Z,15.70
2019-01-28T23:30:38.558Z,15.30
2019-01-28T23:33:07.554Z,14.37
2019-01-28T23:35:36.210Z,18.53
2019-01-28T23:38:05.451Z,15.70
2019-01-28T23:40:34.064Z,17.17
2019-01-28T23:43:03.482Z,24.17
2019-01-28T23:45:32.012Z,15.63
2019-01-28T23:48:00.673Z,19.97
2019-01-28T23:50:29.304Z,19.40
2019-01-28T23:52:58.066Z,17.67
2019-01-28T23:55:26.940Z,19.13
2019-01-28T23:57:56.876Z,15.07
